Time;durP1;ratioP1;P1;durP2;ratioP2;P2;SDS_P1;SDS_P2;PMS_P1;PMS_P2;Temp;Humidity;BMP_temperature;BMP_pressure;BME280_temperature;BME280_humidity;BME280_pressure;Samples;Min_cycle;Max_cycle;Signal;HPM_P1;HPM_P2
2023/11/22 00:00:20;;;;;;;10.45;8.77;;;;;;;4.81;72.61;98705.59;4966959;28;20053;-71
2023/11/22 00:02:47;;;;;;;11.10;9.90;;;;;;;4.76;72.69;98702.72;4983679;28;20035;-74
2023/11/22 00:05:12;;;;;;;10.00;9.00;;;;;;;4.74;72.83;98712.72;4981060;28;20026;-71
2023/11/22 00:07:38;;;;;;;12.27;9.73;;;;;;;4.63;72.67;98702.59;4977284;28;20058;-72
2023/11/22 00:10:04;;;;;;;11.18;9.50;;;;;;;4.65;73.19;98716.56;4979986;28;20490;-72
2023/11/22 00:12:36;;;;;;;11.18;8.95;;;;;;;4.57;73.02;98719.41;4954182;28;20057;-74
2023/11/22 00:15:04;;;;;;;9.75;8.40;;;;;;;4.49;73.30;98696.34;4951081;28;20038;-72
2023/11/22 00:17:29;;;;;;;10.20;9.10;;;;;;;4.45;73.34;98680.94;4979274;28;20077;-73
2023/11/22 00:19:54;;;;;;;10.88;9.15;;;;;;;4.53;73.14;98694.13;4980513;28;20089;-74
2023/11/22 00:22:21;;;;;;;11.48;8.70;;;;;;;4.48;73.39;98704.56;4976106;28;20038;-73
2023/11/22 00:24:50;;;;;;;10.25;9.02;;;;;;;4.52;73.33;98711.16;4982217;28;20026;-74
2023/11/22 00:27:15;;;;;;;10.38;9.38;;;;;;;4.39;73.38;98713.72;4980737;28;20069;-73
2023/11/22 00:29:41;;;;;;;10.88;8.77;;;;;;;4.24;73.43;98699.63;4983172;28;20729;-73
2023/11/22 00:32:07;;;;;;;10.32;8.68;;;;;;;4.16;73.74;98695.25;4948033;28;20467;-74
2023/11/22 00:34:33;;;;;;;11.05;7.63;;;;;;;4.17;73.52;98700.41;4977222;28;20035;-74
2023/11/22 00:36:58;;;;;;;8.27;7.40;;;;;;;4.15;73.71;98705.06;4968299;28;20023;-74
2023/11/22 00:39:24;;;;;;;8.07;7.28;;;;;;;4.14;73.12;98719.44;4984775;28;21399;-74
2023/11/22 00:41:49;;;;;;;9.80;7.18;;;;;;;4.18;73.00;98723.38;4946038;28;20027;-72
2023/11/22 00:44:14;;;;;;;10.07;7.50;;;;;;;4.20;72.89;98724.00;4983455;28;20034;-71
2023/11/22 00:46:40;;;;;;;8.00;6.70;;;;;;;4.10;72.85;98723.50;4976872;28;20549;-71
2023/11/22 00:49:05;;;;;;;10.05;8.43;;;;;;;4.17;72.77;98719.06;4984678;28;20122;-71
2023/11/22 00:51:32;;;;;;;8.13;6.65;;;;;;;4.21;73.02;98730.16;4977818;28;20042;-73
2023/11/22 00:53:59;;;;;;;10.05;7.38;;;;;;;4.17;72.99;98735.06;4979149;28;20130;-72
2023/11/22 00:56:25;;;;;;;8.25;7.45;;;;;;;4.20;72.77;98741.84;4951388;28;20030;-72
2023/11/22 00:58:50;;;;;;;9.60;7.95;;;;;;;4.20;73.24;98734.66;4980493;28;20039;-75
2023/11/22 01:01:18;;;;;;;9.38;7.95;;;;;;;4.20;73.16;98729.31;4963624;28;20026;-74
2023/11/22 01:03:43;;;;;;;9.30;8.38;;;;;;;4.33;73.77;98735.81;4981111;28;20027;-74
2023/11/22 01:06:09;;;;;;;8.57;7.70;;;;;;;4.20;73.27;98718.66;4963086;28;20029;-72
2023/11/22 01:08:35;;;;;;;8.30;7.25;;;;;;;4.25;72.70;98726.09;4961170;28;20038;-74
2023/11/22 01:11:03;;;;;;;8.48;7.57;;;;;;;4.26;73.45;98737.56;4982361;28;20765;-74
2023/11/22 01:13:29;;;;;;;9.43;7.85;;;;;;;4.14;73.51;98732.75;4974259;28;20117;-73
2023/11/22 01:15:54;;;;;;;8.43;7.53;;;;;;;4.01;73.50;98716.63;4950440;28;20058;-73
2023/11/22 01:18:20;;;;;;;9.93;8.30;;;;;;;4.19;73.54;98749.00;4964067;28;20045;-72
2023/11/22 01:20:45;;;;;;;9.48;8.35;;;;;;;4.12;73.35;98745.47;4942789;28;20050;-72
2023/11/22 01:23:11;;;;;;;9.23;8.10;;;;;;;4.06;72.94;98740.88;4966322;28;20490;-74
2023/11/22 01:25:36;;;;;;;8.68;7.70;;;;;;;4.18;73.58;98758.00;4960156;28;20450;-74
2023/11/22 01:28:02;;;;;;;8.60;7.70;;;;;;;4.07;73.35;98749.69;4963177;28;20027;-75
2023/11/22 01:30:28;;;;;;;8.38;7.45;;;;;;;4.16;72.68;98757.38;4961426;28;20029;-73
2023/11/22 01:32:57;;;;;;;8.40;7.25;;;;;;;4.16;72.82;98745.88;4928612;29;20031;-75
2023/11/22 01:35:23;;;;;;;9.32;8.32;;;;;;;3.91;72.40;98705.47;4962556;28;20026;-74
2023/11/22 01:37:49;;;;;;;7.82;6.97;;;;;;;4.19;72.68;98743.69;4948097;28;20600;-73
2023/11/22 01:40:15;;;;;;;9.90;7.57;;;;;;;4.25;72.44;98746.59;4962851;28;20023;-72
2023/11/22 01:42:40;;;;;;;8.48;7.57;;;;;;;4.29;72.47;98766.53;4965449;28;20034;-73
2023/11/22 01:45:07;;;;;;;8.35;7.20;;;;;;;4.32;72.57;98763.50;4947004;28;20050;-71
2023/11/22 01:47:33;;;;;;;7.22;6.53;;;;;;;4.35;72.40;98757.75;4976032;28;20138;-71
2023/11/22 01:49:58;;;;;;;8.20;6.72;;;;;;;4.35;72.45;98760.41;4981403;28;20102;-71
2023/11/22 01:52:23;;;;;;;8.90;7.28;;;;;;;4.38;72.55;98757.38;4961575;28;20114;-70
2023/11/22 01:54:49;;;;;;;7.97;7.00;;;;;;;4.40;72.32;98760.69;4964592;28;20150;-71
2023/11/22 01:57:15;;;;;;;7.47;6.72;;;;;;;4.44;72.23;98759.28;4947783;28;20046;-71
2023/11/22 01:59:41;;;;;;;7.70;6.90;;;;;;;4.40;71.73;98760.69;4941570;28;20069;-72
2023/11/22 02:02:07;;;;;;;8.13;6.80;;;;;;;4.37;71.94;98767.22;4981642;28;20041;-72
2023/11/22 02:04:32;;;;;;;6.90;6.20;;;;;;;4.22;71.82;98773.63;4974135;28;20034;-71
2023/11/22 02:06:58;;;;;;;8.07;6.45;;;;;;;4.22;71.40;98773.63;4977116;28;20042;-71
2023/11/22 02:09:24;;;;;;;8.38;6.20;;;;;;;4.13;71.34;98767.63;4976764;28;20077;-71
2023/11/22 02:11:50;;;;;;;7.40;6.47;;;;;;;4.30;71.69;98781.50;4978603;28;20126;-72
2023/11/22 02:14:15;;;;;;;7.35;6.38;;;;;;;4.31;70.71;98783.16;4961908;28;20065;-71
2023/11/22 02:16:41;;;;;;;8.93;7.45;;;;;;;4.30;71.03;98792.16;4980900;28;20042;-71
2023/11/22 02:19:14;;;;;;;12.32;6.47;;;;;;;4.23;70.98;98797.44;4979592;28;20118;-71
2023/11/22 02:21:40;;;;;;;8.45;6.88;;;;;;;4.30;71.19;98803.66;4944270;28;20093;-73
2023/11/22 02:24:07;;;;;;;7.97;7.18;;;;;;;4.17;70.33;98799.03;4981676;28;20046;-72
2023/11/22 02:26:33;;;;;;;8.07;7.28;;;;;;;4.17;71.11;98799.03;4960638;28;20521;-73
2023/11/22 02:28:59;;;;;;;7.97;7.18;;;;;;;4.19;70.82;98818.31;4973865;28;20019;-72
2023/11/22 02:31:24;;;;;;;8.40;7.57;;;;;;;4.13;71.18;98819.06;4978699;28;20038;-73
2023/11/22 02:33:50;;;;;;;10.07;8.32;;;;;;;4.12;71.75;98812.09;4958729;28;20445;-70
2023/11/22 02:36:15;;;;;;;10.57;9.00;;;;;;;4.08;71.60;98817.97;4981737;28;20104;-70
2023/11/22 02:38:41;;;;;;;9.32;8.23;;;;;;;3.91;71.88;98793.41;4959048;28;20022;-71
2023/11/22 02:41:08;;;;;;;10.10;9.10;;;;;;;3.95;71.76;98800.00;4959165;28;20066;-71
2023/11/22 02:43:35;;;;;;;11.98;10.77;;;;;;;3.99;72.37;98817.25;4960448;28;20466;-70
2023/11/22 02:46:01;;;;;;;12.32;11.10;;;;;;;4.04;72.19;98820.19;4977867;28;20498;-71
2023/11/22 02:48:26;;;;;;;13.07;11.88;;;;;;;4.08;72.91;98818.78;4961675;28;20029;-70
2023/11/22 02:50:54;;;;;;;15.27;12.68;;;;;;;3.98;73.57;98826.28;4946877;28;20122;-70
2023/11/22 02:53:19;;;;;;;16.45;12.98;;;;;;;3.93;73.97;98823.34;4959175;28;20491;-71
2023/11/22 02:55:45;;;;;;;14.05;12.60;;;;;;;3.91;73.63;98820.03;4958447;28;20086;-72
2023/11/22 02:58:12;;;;;;;14.90;13.15;;;;;;;3.83;74.08;98822.78;4962551;28;20057;-71
2023/11/22 03:00:39;;;;;;;13.75;12.25;;;;;;;3.71;74.34;98802.16;4960060;28;20118;-72
2023/11/22 03:03:09;;;;;;;14.82;13.23;;;;;;;3.75;74.39;98814.94;4980101;28;20022;-70
2023/11/22 03:05:36;;;;;;;14.60;13.05;;;;;;;3.81;74.78;98829.31;4977016;28;20134;-72
2023/11/22 03:08:02;;;;;;;15.48;13.85;;;;;;;3.81;74.70;98830.16;4954647;28;20022;-72
2023/11/22 03:10:29;;;;;;;15.13;13.63;;;;;;;3.83;74.51;98837.94;4946538;28;20046;-73
2023/11/22 03:12:55;;;;;;;16.25;12.80;;;;;;;3.67;74.91;98823.00;4963431;28;20023;-73
2023/11/22 03:15:20;;;;;;;15.10;13.27;;;;;;;3.70;75.15;98833.28;4968544;28;20052;-74
2023/11/22 03:17:46;;;;;;;17.35;13.70;;;;;;;3.60;74.84;98816.75;4964555;28;20546;-74
2023/11/22 03:20:11;;;;;;;17.90;14.98;;;;;;;3.64;75.45;98834.00;4978508;28;20502;-70
2023/11/22 03:22:37;;;;;;;15.20;13.43;;;;;;;3.74;75.11;98834.56;4949373;28;20081;-72
2023/11/22 03:25:03;;;;;;;16.70;13.80;;;;;;;3.74;75.03;98837.22;4947683;28;20047;-72
2023/11/22 03:27:29;;;;;;;15.85;13.55;;;;;;;3.82;74.86;98860.28;4965989;28;20036;-72
2023/11/22 03:29:55;;;;;;;15.00;13.43;;;;;;;3.70;75.42;98849.28;4966190;28;20035;-72
2023/11/22 03:32:21;;;;;;;15.50;13.85;;;;;;;3.70;75.52;98849.28;4950324;28;20034;-71
2023/11/22 03:34:47;;;;;;;16.25;14.55;;;;;;;3.62;75.83;98857.34;4978387;28;20034;-70
2023/11/22 03:37:13;;;;;;;18.27;14.77;;;;;;;3.67;75.36;98867.44;4967161;28;20117;-71
2023/11/22 03:39:38;;;;;;;16.60;14.80;;;;;;;3.60;75.32;98848.72;4964369;28;20043;-72
2023/11/22 03:42:04;;;;;;;16.15;13.85;;;;;;;3.66;75.22;98853.31;4969891;28;20496;-70
2023/11/22 03:44:29;;;;;;;16.92;15.13;;;;;;;3.72;75.38;98860.56;4964649;28;20045;-71
2023/11/22 03:46:55;;;;;;;16.95;15.23;;;;;;;3.67;75.21;98852.28;4945979;28;20034;-70
2023/11/22 03:49:21;;;;;;;18.33;15.23;;;;;;;3.58;75.34;98861.41;4950298;28;20072;-71
2023/11/22 03:51:47;;;;;;;19.05;16.70;;;;;;;3.54;75.70;98854.78;4962108;28;20031;-71
2023/11/22 03:54:12;;;;;;;18.27;15.88;;;;;;;3.58;75.92;98872.03;4976900;28;20030;-71
2023/11/22 03:56:38;;;;;;;17.38;15.48;;;;;;;3.51;76.21;98879.13;4945832;28;20472;-71
2023/11/22 03:59:03;;;;;;;17.42;15.63;;;;;;;3.54;76.42;98900.06;4962253;28;20486;-71
2023/11/22 04:01:29;;;;;;;18.08;16.17;;;;;;;3.38;76.83;98876.28;4963396;28;20022;-70
2023/11/22 04:03:54;;;;;;;20.63;17.55;;;;;;;3.46;76.30;98878.81;4945935;28;20150;-71
2023/11/22 04:06:19;;;;;;;19.92;16.77;;;;;;;3.44;76.75;98896.81;4980296;28;20475;-72
2023/11/22 04:08:46;;;;;;;19.38;15.77;;;;;;;3.49;75.76;98899.78;4976847;28;20058;-72
2023/11/22 04:11:12;;;;;;;17.95;15.90;;;;;;;3.51;75.77;98887.09;4965037;28;20023;-72
2023/11/22 04:13:37;;;;;;;17.75;15.85;;;;;;;3.52;76.02;98912.72;4977556;28;20117;-71
2023/11/22 04:16:04;;;;;;;17.17;14.98;;;;;;;3.44;76.14;98902.97;4966769;28;20046;-71
2023/11/22 04:18:30;;;;;;;17.42;15.60;;;;;;;3.32;76.42;98911.56;4946287;28;20113;-71
2023/11/22 04:20:58;;;;;;;17.40;14.60;;;;;;;3.37;76.20;98922.50;4959722;28;20539;-72
2023/11/22 04:23:23;;;;;;;17.17;14.95;;;;;;;3.25;76.14;98907.97;4963352;28;20034;-71
2023/11/22 04:25:49;;;;;;;18.38;15.93;;;;;;;3.26;75.93;98921.13;4962262;28;20030;-72
2023/11/22 04:28:15;;;;;;;19.58;15.82;;;;;;;3.32;76.11;98920.41;4982993;28;20038;-72
2023/11/22 04:30:40;;;;;;;19.17;15.50;;;;;;;3.25;75.88;98922.13;4962390;28;20113;-70
2023/11/22 04:33:06;;;;;;;17.55;15.75;;;;;;;3.17;76.67;98911.56;4944732;28;20038;-71
2023/11/22 04:35:36;;;;;;;17.38;13.52;;;;;;;3.29;76.33;98927.94;4963015;28;20030;-70
2023/11/22 04:38:01;;;;;;;17.77;15.40;;;;;;;3.29;76.00;98939.38;4963138;28;20031;-75
2023/11/22 04:40:26;;;;;;;18.98;17.05;;;;;;;3.34;76.28;98928.19;4956197;28;20493;-72
2023/11/22 04:42:52;;;;;;;19.45;16.48;;;;;;;3.44;76.12;98934.09;4948379;28;20043;-74
2023/11/22 04:45:17;;;;;;;17.90;16.10;;;;;;;3.45;75.63;98925.13;4957766;28;20026;-74
2023/11/22 04:47:42;;;;;;;20.95;16.80;;;;;;;3.42;75.96;98941.44;4960546;28;20046;-73
2023/11/22 04:50:09;;;;;;;18.23;15.88;;;;;;;3.37;76.01;98931.34;4983289;28;20153;-73
2023/11/22 04:52:35;;;;;;;19.45;16.38;;;;;;;3.42;75.75;98952.94;4961804;28;20459;-72
2023/11/22 04:55:00;;;;;;;19.50;17.42;;;;;;;3.29;75.61;98930.59;4942924;28;20181;-73
2023/11/22 04:57:26;;;;;;;18.50;16.58;;;;;;;3.46;76.11;98964.03;4947208;28;20054;-74
2023/11/22 04:59:51;;;;;;;18.80;16.40;;;;;;;3.41;75.64;98956.59;4960229;28;20474;-73
2023/11/22 05:02:17;;;;;;;18.15;15.80;;;;;;;3.38;75.96;98950.81;4949995;28;20030;-74
2023/11/22 05:04:43;;;;;;;17.25;15.40;;;;;;;3.39;75.98;98952.44;4958378;28;20482;-74
2023/11/22 05:07:09;;;;;;;18.70;16.67;;;;;;;3.52;75.25;98957.16;4943426;28;20050;-74
2023/11/22 05:09:34;;;;;;;17.83;15.93;;;;;;;3.53;75.48;98969.44;4962037;28;20030;-75
2023/11/22 05:12:00;;;;;;;16.75;14.95;;;;;;;3.56;74.94;98964.59;4945302;28;20475;-74
2023/11/22 05:14:26;;;;;;;17.92;16.02;;;;;;;3.55;74.85;98952.28;4979399;28;20395;-71
2023/11/22 05:16:51;;;;;;;19.13;16.02;;;;;;;3.54;74.53;98963.13;4963461;28;20058;-74
2023/11/22 05:19:17;;;;;;;18.50;16.50;;;;;;;3.46;74.47;98982.66;4945898;28;20109;-74
2023/11/22 05:21:42;;;;;;;20.10;16.63;;;;;;;3.61;75.03;98977.38;4959341;28;20663;-71
2023/11/22 05:24:08;;;;;;;21.75;18.70;;;;;;;3.48;74.90;98967.31;4980949;28;20166;-74
2023/11/22 05:26:34;;;;;;;20.58;18.13;;;;;;;3.38;75.37;98972.91;4960076;28;20043;-74
2023/11/22 05:28:59;;;;;;;23.27;18.92;;;;;;;3.18;76.14;98984.22;4965060;28;20038;-71
2023/11/22 05:31:25;;;;;;;23.48;20.33;;;;;;;3.03;76.33;98965.56;4958897;28;20078;-74
2023/11/22 05:33:50;;;;;;;21.83;19.48;;;;;;;3.22;76.07;98985.53;4957050;28;20107;-73
2023/11/22 05:36:16;;;;;;;24.13;20.42;;;;;;;3.24;75.41;98970.22;4980767;28;20436;-73
2023/11/22 05:38:42;;;;;;;28.88;21.67;;;;;;;3.16;76.10;98967.63;4975377;28;20027;-73
2023/11/22 05:41:08;;;;;;;26.52;23.55;;;;;;;3.31;75.41;99000.44;4966674;28;20181;-72
2023/11/22 05:43:36;;;;;;;26.30;21.77;;;;;;;3.16;75.89;98999.53;4951981;28;20037;-74
2023/11/22 05:46:04;;;;;;;24.02;21.42;;;;;;;3.24;76.26;99007.47;4944725;28;20070;-74
2023/11/22 05:48:30;;;;;;;28.73;24.13;;;;;;;3.19;76.08;99007.19;4957395;28;20027;-73
2023/11/22 05:50:55;;;;;;;29.08;24.38;;;;;;;3.09;76.88;99014.56;4946043;28;20061;-73
2023/11/22 05:53:21;;;;;;;27.42;22.50;;;;;;;2.86;76.51;99003.91;4960051;28;20403;-74
2023/11/22 05:55:50;;;;;;;27.02;21.92;;;;;;;3.03;77.00;99026.75;4956464;28;20054;-74
2023/11/22 05:58:16;;;;;;;29.42;24.00;;;;;;;3.07;76.97;99022.72;4962481;28;20080;-74
2023/11/22 06:00:47;;;;;;;28.88;22.50;;;;;;;2.86;76.65;99013.72;4960037;28;20043;-75
2023/11/22 06:03:13;;;;;;;30.33;25.98;;;;;;;2.84;77.18;99021.03;4977969;28;20041;-74
2023/11/22 06:05:39;;;;;;;29.00;22.85;;;;;;;2.87;76.91;99032.16;4960751;28;20472;-73
2023/11/22 06:08:04;;;;;;;27.83;23.85;;;;;;;3.02;77.02;99041.06;4959036;28;20031;-73
2023/11/22 06:10:30;;;;;;;33.40;27.63;;;;;;;2.91;77.16;99036.13;4945554;28;20031;-74
2023/11/22 06:12:56;;;;;;;28.33;23.98;;;;;;;2.93;77.39;99049.25;4959300;28;20113;-75
2023/11/22 06:15:22;;;;;;;27.85;24.08;;;;;;;2.91;77.22;99056.59;4979771;28;20421;-74
2023/11/22 06:17:48;;;;;;;29.30;22.80;;;;;;;2.82;77.69;99052.31;4960213;28;20041;-73
2023/11/22 06:20:14;;;;;;;27.98;23.90;;;;;;;2.84;77.59;99084.88;4974894;28;20045;-74
2023/11/22 06:22:41;;;;;;;27.23;22.33;;;;;;;2.56;78.36;99077.38;4961646;28;20494;-74
2023/11/22 06:25:11;;;;;;;27.88;22.70;;;;;;;2.67;77.87;99090.28;4943687;28;20031;-72
2023/11/22 06:27:36;;;;;;;26.80;22.55;;;;;;;2.72;77.37;99093.25;4963369;28;20057;-75
2023/11/22 06:30:03;;;;;;;23.77;21.00;;;;;;;2.77;76.99;99085.59;4961725;28;20026;-74
2023/11/22 06:32:28;;;;;;;24.75;21.35;;;;;;;2.74;76.77;99085.91;4945455;28;20037;-72
2023/11/22 06:34:54;;;;;;;23.73;21.15;;;;;;;2.73;76.73;99092.22;4958357;28;20458;-73
2023/11/22 06:37:20;;;;;;;25.45;21.42;;;;;;;2.70;77.07;99097.91;4963552;28;20031;-73
2023/11/22 06:39:46;;;;;;;26.75;22.23;;;;;;;2.75;77.02;99106.19;4959884;28;20603;-71
2023/11/22 06:42:11;;;;;;;24.00;20.88;;;;;;;2.69;76.73;99108.69;4956525;28;20125;-71
2023/11/22 06:44:36;;;;;;;23.20;20.73;;;;;;;2.56;77.38;99119.06;4959494;28;20046;-69
2023/11/22 06:47:02;;;;;;;25.35;21.13;;;;;;;2.53;77.15;99120.22;4976489;28;20081;-71
2023/11/22 06:49:28;;;;;;;25.42;21.20;;;;;;;2.54;77.47;99119.25;4966316;28;20165;-72
2023/11/22 06:51:53;;;;;;;25.90;22.33;;;;;;;2.55;77.29;99120.06;4964521;28;20406;-72
2023/11/22 06:54:20;;;;;;;23.70;20.73;;;;;;;2.48;76.57;99108.44;4973534;28;20509;-71
2023/11/22 06:56:45;;;;;;;25.48;22.23;;;;;;;2.57;76.22;99123.38;4974660;28;20077;-71
2023/11/22 06:59:11;;;;;;;25.10;21.90;;;;;;;2.62;76.15;99119.19;4959510;28;20050;-70
2023/11/22 07:01:36;;;;;;;23.58;20.35;;;;;;;2.59;76.48;99130.16;4981348;28;20089;-71
2023/11/22 07:04:03;;;;;;;25.35;22.73;;;;;;;2.62;76.37;99131.66;4956207;28;20019;-71
2023/11/22 07:06:29;;;;;;;23.10;20.60;;;;;;;2.62;75.88;99129.00;4962291;28;20062;-71
2023/11/22 07:08:54;;;;;;;23.17;19.67;;;;;;;2.64;76.53;99142.94;4978040;28;20434;-71
2023/11/22 07:11:23;;;;;;;21.25;18.88;;;;;;;2.57;76.17;99153.44;4960917;28;20494;-71
2023/11/22 07:13:48;;;;;;;21.40;19.08;;;;;;;2.53;75.38;99144.16;4973106;28;20132;-71
2023/11/22 07:16:15;;;;;;;20.38;18.17;;;;;;;2.68;75.80;99137.13;4962773;28;20454;-71
2023/11/22 07:18:40;;;;;;;21.20;17.50;;;;;;;2.70;74.91;99137.81;4961978;28;20246;-71
2023/11/22 07:21:05;;;;;;;18.67;16.67;;;;;;;2.65;75.04;99137.47;4980162;28;20038;-72
2023/11/22 07:23:31;;;;;;;19.08;16.65;;;;;;;2.65;74.89;99134.00;4956679;28;20023;-71
2023/11/22 07:25:56;;;;;;;18.50;16.30;;;;;;;2.77;74.43;99149.41;4963586;28;20509;-71
2023/11/22 07:28:22;;;;;;;17.90;16.00;;;;;;;2.79;74.05;99144.75;4976253;28;20030;-73
2023/11/22 07:30:48;;;;;;;18.45;16.55;;;;;;;2.80;73.88;99159.69;4978401;28;20545;-70
2023/11/22 07:33:14;;;;;;;17.90;16.00;;;;;;;2.65;73.92;99155.25;4974537;28;20714;-71
2023/11/22 07:35:40;;;;;;;16.38;14.63;;;;;;;2.85;73.43;99174.31;4962400;28;20399;-72
2023/11/22 07:38:08;;;;;;;14.65;13.07;;;;;;;2.74;72.98;99179.00;4943989;28;20034;-72
2023/11/22 07:40:34;;;;;;;15.23;13.63;;;;;;;2.77;72.34;99181.31;4980118;28;20448;-72
2023/11/22 07:42:59;;;;;;;15.10;13.50;;;;;;;2.54;72.28;99169.75;4933800;28;20122;-71
2023/11/22 07:45:25;;;;;;;14.07;12.68;;;;;;;2.53;72.08;99177.88;4947184;28;20125;-71
2023/11/22 07:47:52;;;;;;;14.30;12.82;;;;;;;2.73;72.59;99193.28;4973184;28;20031;-71
2023/11/22 07:50:19;;;;;;;15.40;13.25;;;;;;;2.84;72.12;99207.22;4975688;28;20148;-71
2023/11/22 07:52:45;;;;;;;14.30;12.93;;;;;;;2.63;71.74;99174.06;4962867;28;20054;-71
2023/11/22 07:55:11;;;;;;;15.38;12.75;;;;;;;2.83;71.83;99201.06;4959582;28;20038;-68
2023/11/22 07:57:39;;;;;;;14.73;13.25;;;;;;;2.90;71.66;99203.88;4974483;28;20031;-69
2023/11/22 08:00:07;;;;;;;13.45;12.05;;;;;;;2.98;71.45;99206.53;4980386;28;20037;-69
2023/11/22 08:02:43;;;;;;;14.05;12.55;;;;;;;2.88;71.80;99187.25;4967293;28;20057;-71
2023/11/22 08:05:08;;;;;;;15.00;13.38;;;;;;;2.83;71.56;99192.25;4963167;28;20034;-71
2023/11/22 08:07:38;;;;;;;14.30;12.07;;;;;;;2.83;71.28;99181.63;4957817;28;20027;-72
2023/11/22 08:10:09;;;;;;;13.05;11.60;;;;;;;2.97;70.39;99176.41;4964060;28;20038;-72
2023/11/22 08:12:36;;;;;;;13.10;11.80;;;;;;;3.09;70.44;99179.53;4960347;28;20039;-70
2023/11/22 08:15:03;;;;;;;11.88;10.68;;;;;;;3.00;70.61;99185.91;4952353;28;20018;-71
2023/11/22 08:17:29;;;;;;;12.35;11.15;;;;;;;3.03;69.57;99191.72;4928883;28;20046;-72
2023/11/22 08:19:55;;;;;;;12.20;10.90;;;;;;;2.97;69.61;99188.88;4980369;28;20026;-72
2023/11/22 08:22:21;;;;;;;12.70;10.75;;;;;;;3.14;69.44;99201.13;4978013;28;20050;-71
2023/11/22 08:24:47;;;;;;;11.80;10.57;;;;;;;3.12;68.68;99206.66;4981007;28;20019;-70
2023/11/22 08:27:15;;;;;;;11.80;10.60;;;;;;;2.97;69.08;99192.38;4960029;28;20053;-71
2023/11/22 08:29:40;;;;;;;11.20;10.05;;;;;;;2.89;68.71;99199.56;4982274;28;20054;-71
2023/11/22 08:32:06;;;;;;;12.10;10.85;;;;;;;2.93;68.75;99190.25;4962864;28;20483;-70
2023/11/22 08:34:32;;;;;;;12.43;11.23;;;;;;;2.88;69.06;99200.56;4958059;28;20378;-70
2023/11/22 08:36:58;;;;;;;11.23;10.02;;;;;;;2.84;68.86;99200.09;4963464;28;20043;-70
2023/11/22 08:39:24;;;;;;;12.07;10.80;;;;;;;2.63;69.08;99190.00;4945831;28;20049;-73
2023/11/22 08:41:50;;;;;;;11.70;10.50;;;;;;;2.71;69.47;99211.25;4949213;28;20104;-72
2023/11/22 08:44:15;;;;;;;12.48;11.18;;;;;;;2.64;69.40;99190.81;4964001;28;20038;-72
2023/11/22 08:46:41;;;;;;;12.70;11.32;;;;;;;2.73;69.30;99211.91;4957397;28;20035;-71
2023/11/22 08:49:06;;;;;;;12.30;11.07;;;;;;;2.77;69.35;99221.22;4966691;28;20206;-69
2023/11/22 08:51:33;;;;;;;12.23;11.02;;;;;;;2.90;68.66;99211.84;4958614;28;20042;-70
2023/11/22 08:53:59;;;;;;;13.20;11.70;;;;;;;2.94;69.34;99200.69;4967662;28;20097;-70
2023/11/22 08:56:24;;;;;;;14.50;12.40;;;;;;;2.96;69.06;99221.84;4944259;28;20125;-72
2023/11/22 08:58:49;;;;;;;13.30;11.93;;;;;;;2.74;69.68;99191.47;4963082;28;20594;-70
2023/11/22 09:01:15;;;;;;;13.13;11.75;;;;;;;2.72;69.27;99185.50;4978146;28;20061;-70
2023/11/22 09:03:41;;;;;;;12.50;11.20;;;;;;;2.75;69.25;99198.47;4947144;28;20054;-71
2023/11/22 09:06:07;;;;;;;12.68;11.38;;;;;;;2.74;69.06;99192.31;4962954;28;20125;-70
2023/11/22 09:08:32;;;;;;;11.45;10.32;;;;;;;2.92;68.49;99209.88;4961214;28;20509;-70
2023/11/22 09:10:57;;;;;;;11.10;9.90;;;;;;;2.76;68.51;99190.28;4988777;28;20045;-70
2023/11/22 09:13:24;;;;;;;11.02;9.93;;;;;;;2.70;68.88;99196.31;4973096;28;20018;-70
2023/11/22 09:15:50;;;;;;;10.88;9.77;;;;;;;2.63;69.03;99178.53;4972611;28;20117;-69
2023/11/22 09:18:15;;;;;;;10.75;9.60;;;;;;;2.98;67.88;99203.88;4980189;28;20165;-69
2023/11/22 09:20:44;;;;;;;10.65;9.55;;;;;;;3.00;67.83;99193.88;4957693;28;20046;-72
2023/11/22 09:23:09;;;;;;;10.60;9.60;;;;;;;3.00;67.64;99201.84;4951484;28;20034;-69
2023/11/22 09:25:35;;;;;;;11.35;10.15;;;;;;;3.01;67.99;99203.53;4958848;28;20074;-69
2023/11/22 09:28:01;;;;;;;10.45;9.35;;;;;;;3.05;68.07;99212.81;4959569;28;20109;-69
2023/11/22 09:30:42;;;;;;;10.95;9.60;;;;;;;3.14;67.63;99209.97;4960502;28;20113;-70
2023/11/22 09:33:09;;;;;;;12.80;10.90;;;;;;;3.22;67.62;99211.78;4969906;28;20034;-70
2023/11/22 09:35:37;;;;;;;11.05;9.95;;;;;;;3.30;67.65;99214.38;4963943;28;20101;-70
2023/11/22 09:38:09;;;;;;;12.25;11.05;;;;;;;3.27;67.45;99220.88;4962558;28;20049;-70
2023/11/22 09:40:35;;;;;;;11.23;10.13;;;;;;;3.39;67.18;99229.31;4960634;28;20030;-70
2023/11/22 09:43:02;;;;;;;10.68;9.57;;;;;;;3.48;66.95;99228.25;4976781;28;20057;-70
2023/11/22 09:45:29;;;;;;;11.75;9.98;;;;;;;3.48;66.88;99249.56;4964475;28;20043;-70
2023/11/22 09:47:55;;;;;;;10.18;9.18;;;;;;;3.31;66.48;99248.00;4961238;28;20089;-70
2023/11/22 09:50:29;;;;;;;10.15;9.15;;;;;;;3.22;66.63;99227.75;4950726;28;20038;-69
2023/11/22 09:53:00;;;;;;;10.13;8.98;;;;;;;3.21;66.46;99234.88;4929998;28;20031;-70
2023/11/22 09:55:28;;;;;;;9.07;8.18;;;;;;;3.31;66.32;99245.34;4953549;28;21362;-69
2023/11/22 09:57:53;;;;;;;9.70;8.80;;;;;;;3.23;65.93;99248.84;4942635;28;20442;-69
2023/11/22 10:00:21;;;;;;;9.10;8.20;;;;;;;3.28;66.13;99258.97;4979068;28;20046;-70
2023/11/22 10:02:47;;;;;;;9.85;8.85;;;;;;;3.24;66.40;99241.69;4957513;28;20117;-70
2023/11/22 10:05:12;;;;;;;9.38;8.48;;;;;;;3.29;65.98;99236.69;4947440;28;20176;-69
2023/11/22 10:07:38;;;;;;;9.10;7.90;;;;;;;3.33;66.11;99252.16;4956027;28;20053;-72
2023/11/22 10:10:05;;;;;;;9.95;8.55;;;;;;;3.30;65.84;99236.50;4965785;28;20042;-71
2023/11/22 10:12:30;;;;;;;9.43;8.52;;;;;;;3.24;65.70;99247.03;4957647;28;20042;-71
2023/11/22 10:15:10;;;;;;;8.57;7.78;;;;;;;3.19;65.59;99244.88;4966294;28;20030;-71
2023/11/22 10:17:36;;;;;;;9.77;8.77;;;;;;;3.06;65.61;99211.81;4955195;28;20105;-71
2023/11/22 10:20:01;;;;;;;10.20;8.48;;;;;;;3.05;65.73;99231.44;4960211;28;20487;-70
2023/11/22 10:22:27;;;;;;;10.48;9.38;;;;;;;2.98;65.93;99209.19;4961270;28;20039;-71
2023/11/22 10:24:55;;;;;;;10.75;9.25;;;;;;;3.07;65.55;99227.63;4979380;28;20049;-70
2023/11/22 10:27:20;;;;;;;14.73;13.18;;;;;;;3.09;65.89;99235.41;4957811;28;20035;-71
2023/11/22 10:29:48;;;;;;;17.13;13.25;;;;;;;3.12;65.76;99243.06;4980362;28;20437;-70
2023/11/22 10:32:13;;;;;;;19.35;13.57;;;;;;;3.20;65.74;99229.72;4978612;28;20035;-71
2023/11/22 10:34:39;;;;;;;15.48;12.48;;;;;;;3.24;66.00;99228.38;4975115;28;20533;-72
2023/11/22 10:37:04;;;;;;;14.82;12.05;;;;;;;3.32;65.83;99245.16;4977103;28;20035;-72
2023/11/22 10:39:29;;;;;;;12.85;8.95;;;;;;;3.42;65.31;99247.59;4960131;28;20026;-71
2023/11/22 10:41:55;;;;;;;9.40;8.43;;;;;;;3.42;65.15;99250.28;4964166;28;20467;-69
2023/11/22 10:44:23;;;;;;;9.70;8.73;;;;;;;3.37;65.48;99245.47;4961940;28;20449;-71
2023/11/22 10:46:51;;;;;;;8.90;8.00;;;;;;;3.65;64.89;99250.31;4972872;28;20039;-73
2023/11/22 10:49:16;;;;;;;9.98;8.98;;;;;;;3.65;64.05;99237.84;4979000;28;20037;-71
2023/11/22 10:51:44;;;;;;;10.55;9.45;;;;;;;3.86;63.63;99254.03;4953026;28;20042;-73
2023/11/22 10:54:10;;;;;;;9.18;8.25;;;;;;;4.14;63.56;99257.00;4954823;28;20122;-71
2023/11/22 10:56:39;;;;;;;9.70;8.80;;;;;;;4.39;62.81;99260.34;4970932;28;20534;-71
2023/11/22 10:59:10;;;;;;;9.38;8.10;;;;;;;4.46;62.31;99255.91;4935769;29;20023;-71
2023/11/22 11:01:35;;;;;;;8.00;7.30;;;;;;;4.32;62.29;99232.72;4953188;28;20499;-72
2023/11/22 11:04:06;;;;;;;9.77;8.48;;;;;;;4.52;61.80;99256.06;4947820;28;20157;-71
2023/11/22 11:06:33;;;;;;;9.10;8.15;;;;;;;4.64;61.93;99249.28;4956366;28;20026;-72
2023/11/22 11:09:15;;;;;;;9.48;7.68;;;;;;;4.58;61.49;99249.97;4958448;28;20078;-71
2023/11/22 11:11:40;;;;;;;8.80;8.00;;;;;;;4.45;61.94;99248.94;4957955;28;20037;-72
2023/11/22 11:14:09;;;;;;;8.98;8.07;;;;;;;4.47;62.22;99260.25;4954637;28;20691;-70
2023/11/22 11:16:47;;;;;;;8.43;7.63;;;;;;;4.60;61.76;99263.13;4957391;28;20031;-71
2023/11/22 11:19:14;;;;;;;8.82;7.55;;;;;;;4.62;62.10;99258.47;4962916;28;20380;-71
2023/11/22 11:21:39;;;;;;;8.20;7.40;;;;;;;4.45;62.26;99264.94;4958757;28;20031;-72
2023/11/22 11:24:05;;;;;;;8.35;7.20;;;;;;;4.47;62.16;99278.91;4962539;28;20038;-71
2023/11/22 11:26:37;;;;;;;7.75;6.95;;;;;;;4.57;61.97;99268.84;4974974;28;20026;-70